McCall, Louisiana
Current Conditions -  °F | °C
As of 6:35 AM on Sunday 23 Nov 2014 (Local Time) from KL38 Reporting Station
Light Rain Light Rain  
Wind Chill: 64°   Ceiling: 9500
Heat Index: 64°   Visibility: 10mi
Dew Point: 64°   Wind: 6mph
Humidity: 100%   Direction: 150°SSE
Pressure: 29.71"   Gusts: NA
Location:  30.1206°N, 91.0306°W
Report Text: KL38 231235Z AUTO 15005KT 10SM -RA SCT005 SCT017 OVC095 18/18 A2971 RMK AO2 LTG DSNT E P0009 T01770177
Loading
Personal Weather Stations






























Interactive Weather Map New forecast layout! Learn more

10-Day Weather Forecast

Advertisements
Track Severe Weather on mobile